sensor_id;sensor_type;location;lat;lon;timestamp;pressure;altitude;pressure_sealevel;temperature;humidity
15444;BME280;7822;48.146;11.576;2023-07-31T00:01:05;95321.25;;;19.23;84.71
15444;BME280;7822;48.146;11.576;2023-07-31T00:03:33;95318.63;;;19.23;84.35
15444;BME280;7822;48.146;11.576;2023-07-31T00:06:00;95317.81;;;19.23;84.41
15444;BME280;7822;48.146;11.576;2023-07-31T00:08:28;95322.91;;;19.24;84.58
15444;BME280;7822;48.146;11.576;2023-07-31T00:10:55;95312.56;;;19.23;84.46
15444;BME280;7822;48.146;11.576;2023-07-31T00:13:23;95313.34;;;19.23;84.54
15444;BME280;7822;48.146;11.576;2023-07-31T00:15:52;95318.63;;;19.23;84.49
15444;BME280;7822;48.146;11.576;2023-07-31T00:18:19;95313.34;;;19.23;84.55
15444;BME280;7822;48.146;11.576;2023-07-31T00:20:47;95309.94;;;19.23;84.51
15444;BME280;7822;48.146;11.576;2023-07-31T00:23:14;95316.00;;;19.23;84.28
15444;BME280;7822;48.146;11.576;2023-07-31T00:25:42;95315.19;;;19.23;84.46
15444;BME280;7822;48.146;11.576;2023-07-31T00:28:09;95310.72;;;19.23;84.39
15444;BME280;7822;48.146;11.576;2023-07-31T00:30:37;95314.38;;;19.22;84.44
15444;BME280;7822;48.146;11.576;2023-07-31T00:33:06;95307.31;;;19.23;84.23
15444;BME280;7822;48.146;11.576;2023-07-31T00:35:33;95309.94;;;19.23;84.43
15444;BME280;7822;48.146;11.576;2023-07-31T00:38:01;95304.66;;;19.23;84.26
15444;BME280;7822;48.146;11.576;2023-07-31T00:40:29;95294.16;;;19.23;84.28
15444;BME280;7822;48.146;11.576;2023-07-31T00:42:56;95300.22;;;19.23;84.16
15444;BME280;7822;48.146;11.576;2023-07-31T00:45:28;95292.31;;;19.23;84.12
15444;BME280;7822;48.146;11.576;2023-07-31T00:47:55;95301.03;;;19.24;84.26
15444;BME280;7822;48.146;11.576;2023-07-31T00:50:25;95297.56;;;19.23;84.18
15444;BME280;7822;48.146;11.576;2023-07-31T00:52:52;95286.25;;;19.23;84.17
15444;BME280;7822;48.146;11.576;2023-07-31T00:55:20;95289.69;;;19.23;84.29
15444;BME280;7822;48.146;11.576;2023-07-31T00:57:49;95293.13;;;19.24;84.15
15444;BME280;7822;48.146;11.576;2023-07-31T01:00:18;95287.06;;;19.23;84.12
15444;BME280;7822;48.146;11.576;2023-07-31T01:02:45;95291.53;;;19.23;84.35
15444;BME280;7822;48.146;11.576;2023-07-31T01:05:13;95289.69;;;19.23;84.16
15444;BME280;7822;48.146;11.576;2023-07-31T01:07:45;95289.69;;;19.23;84.19
15444;BME280;7822;48.146;11.576;2023-07-31T01:10:18;95288.91;;;19.23;84.21
15444;BME280;7822;48.146;11.576;2023-07-31T01:12:48;95281.78;;;19.23;84.11
15444;BME280;7822;48.146;11.576;2023-07-31T01:15:15;95285.44;;;19.22;84.46
15444;BME280;7822;48.146;11.576;2023-07-31T01:17:43;95273.25;;;19.21;84.27
15444;BME280;7822;48.146;11.576;2023-07-31T01:20:12;95283.63;;;19.23;84.32
15444;BME280;7822;48.146;11.576;2023-07-31T01:22:51;95287.25;;;19.22;84.16
15444;BME280;7822;48.146;11.576;2023-07-31T01:25:26;95277.53;;;19.22;84.19
15444;BME280;7822;48.146;11.576;2023-07-31T01:28:01;95279.34;;;19.22;84.22
15444;BME280;7822;48.146;11.576;2023-07-31T01:30:32;95271.47;;;19.22;84.30
15444;BME280;7822;48.146;11.576;2023-07-31T01:33:02;95263.56;;;19.22;84.29
15444;BME280;7822;48.146;11.576;2023-07-31T01:35:33;95271.47;;;19.22;84.57
15444;BME280;7822;48.146;11.576;2023-07-31T01:38:01;95264.53;;;19.21;84.59
15444;BME280;7822;48.146;11.576;2023-07-31T01:40:28;95261.75;;;19.22;84.27
15444;BME280;7822;48.146;11.576;2023-07-31T01:42:56;95257.47;;;19.21;84.27
15444;BME280;7822;48.146;11.576;2023-07-31T01:45:25;95260.09;;;19.21;84.21
15444;BME280;7822;48.146;11.576;2023-07-31T01:47:53;95254.03;;;19.21;84.57
15444;BME280;7822;48.146;11.576;2023-07-31T01:50:20;95254.03;;;19.21;84.37
15444;BME280;7822;48.146;11.576;2023-07-31T01:52:47;95260.94;;;19.22;84.37
15444;BME280;7822;48.146;11.576;2023-07-31T01:55:15;95254.03;;;19.21;84.20
15444;BME280;7822;48.146;11.576;2023-07-31T01:57:42;95245.34;;;19.20;84.26
15444;BME280;7822;48.146;11.576;2023-07-31T02:00:10;95255.84;;;19.20;84.17
15444;BME280;7822;48.146;11.576;2023-07-31T02:02:39;95252.22;;;19.21;84.45
15444;BME280;7822;48.146;11.576;2023-07-31T02:05:07;95252.41;;;19.20;84.10
15444;BME280;7822;48.146;11.576;2023-07-31T02:07:34;95254.84;;;19.21;84.21
15444;BME280;7822;48.146;11.576;2023-07-31T02:10:02;95253.22;;;19.20;84.31
15444;BME280;7822;48.146;11.576;2023-07-31T02:12:30;95247.97;;;19.20;84.23
15444;BME280;7822;48.146;11.576;2023-07-31T02:14:58;95240.88;;;19.21;84.51
15444;BME280;7822;48.146;11.576;2023-07-31T02:17:25;95242.53;;;19.22;84.22
15444;BME280;7822;48.146;11.576;2023-07-31T02:19:54;95242.53;;;19.22;84.21
15444;BME280;7822;48.146;11.576;2023-07-31T02:22:22;95232.97;;;19.21;84.25
15444;BME280;7822;48.146;11.576;2023-07-31T02:24:49;95232.00;;;19.22;84.24
15444;BME280;7822;48.146;11.576;2023-07-31T02:27:17;95234.63;;;19.22;84.08
15444;BME280;7822;48.146;11.576;2023-07-31T02:29:44;95226.75;;;19.22;84.21
15444;BME280;7822;48.146;11.576;2023-07-31T02:32:12;95227.72;;;19.21;84.44
15444;BME280;7822;48.146;11.576;2023-07-31T02:34:40;95231.19;;;19.21;84.48
15444;BME280;7822;48.146;11.576;2023-07-31T02:37:09;95227.72;;;19.21;84.12
15444;BME280;7822;48.146;11.576;2023-07-31T02:39:36;95224.94;;;19.22;84.13
15444;BME280;7822;48.146;11.576;2023-07-31T02:42:04;95220.66;;;19.21;84.33
15444;BME280;7822;48.146;11.576;2023-07-31T02:44:32;95217.19;;;19.21;84.20
15444;BME280;7822;48.146;11.576;2023-07-31T02:46:59;95215.41;;;19.21;84.30
15444;BME280;7822;48.146;11.576;2023-07-31T02:49:27;95209.31;;;19.21;84.40
15444;BME280;7822;48.146;11.576;2023-07-31T02:51:54;95212.75;;;19.21;84.22
15444;BME280;7822;48.146;11.576;2023-07-31T02:54:23;95214.56;;;19.21;84.27
15444;BME280;7822;48.146;11.576;2023-07-31T02:56:51;95209.31;;;19.21;84.42
15444;BME280;7822;48.146;11.576;2023-07-31T02:59:18;95205.06;;;19.20;84.09
15444;BME280;7822;48.146;11.576;2023-07-31T03:01:46;95204.06;;;19.21;84.43
15444;BME280;7822;48.146;11.576;2023-07-31T03:04:13;95204.06;;;19.21;84.48
15444;BME280;7822;48.146;11.576;2023-07-31T03:06:44;95198.97;;;19.19;84.41
15444;BME280;7822;48.146;11.576;2023-07-31T03:09:11;95200.63;;;19.20;84.19
15444;BME280;7822;48.146;11.576;2023-07-31T03:11:40;95197.16;;;19.20;84.21
15444;BME280;7822;48.146;11.576;2023-07-31T03:14:07;95194.53;;;19.20;83.98
15444;BME280;7822;48.146;11.576;2023-07-31T03:16:35;95196.34;;;19.19;84.20
15444;BME280;7822;48.146;11.576;2023-07-31T03:19:03;95204.22;;;19.19;84.17
15444;BME280;7822;48.146;11.576;2023-07-31T03:21:30;95201.41;;;19.21;84.49
15444;BME280;7822;48.146;11.576;2023-07-31T03:23:58;95201.59;;;19.19;84.30
15444;BME280;7822;48.146;11.576;2023-07-31T03:26:25;95200.78;;;19.19;84.39
15444;BME280;7822;48.146;11.576;2023-07-31T03:28:54;95198.16;;;19.19;84.40
15444;BME280;7822;48.146;11.576;2023-07-31T03:31:22;95203.41;;;19.19;84.15
15444;BME280;7822;48.146;11.576;2023-07-31T03:33:49;95208.66;;;19.19;84.43
15444;BME280;7822;48.146;11.576;2023-07-31T03:36:17;95213.13;;;19.18;84.35
15444;BME280;7822;48.146;11.576;2023-07-31T03:38:45;95213.13;;;19.18;84.38
15444;BME280;7822;48.146;11.576;2023-07-31T03:41:13;95210.50;;;19.18;84.25
15444;BME280;7822;48.146;11.576;2023-07-31T03:43:40;95213.94;;;19.19;84.22
15444;BME280;7822;48.146;11.576;2023-07-31T03:46:09;95210.50;;;19.18;84.23
15444;BME280;7822;48.146;11.576;2023-07-31T03:48:37;95208.66;;;19.19;84.20
15444;BME280;7822;48.146;11.576;2023-07-31T03:51:05;95219.19;;;19.19;84.31
15444;BME280;7822;48.146;11.576;2023-07-31T03:53:32;95206.03;;;19.19;84.19
15444;BME280;7822;48.146;11.576;2023-07-31T03:55:59;95212.13;;;19.19;84.46
15444;BME280;7822;48.146;11.576;2023-07-31T03:58:27;95214.75;;;19.19;84.28
15444;BME280;7822;48.146;11.576;2023-07-31T04:00:54;95212.94;;;19.20;84.40
15444;BME280;7822;48.146;11.576;2023-07-31T04:03:23;95205.06;;;19.20;84.28
15444;BME280;7822;48.146;11.576;2023-07-31T04:05:53;95210.13;;;19.21;84.34
15444;BME280;7822;48.146;11.576;2023-07-31T04:08:21;95205.06;;;19.20;84.15
15444;BME280;7822;48.146;11.576;2023-07-31T04:10:49;95206.69;;;19.21;84.13
15444;BME280;7822;48.146;11.576;2023-07-31T04:13:16;95216.22;;;19.22;84.11
15444;BME280;7822;48.146;11.576;2023-07-31T04:15:47;95207.50;;;19.21;84.54
15444;BME280;7822;48.146;11.576;2023-07-31T04:18:15;95206.53;;;19.22;84.22
15444;BME280;7822;48.146;11.576;2023-07-31T04:20:43;95203.91;;;19.22;84.30
15444;BME280;7822;48.146;11.576;2023-07-31T04:23:11;95201.28;;;19.22;84.27
15444;BME280;7822;48.146;11.576;2023-07-31T04:25:39;95208.16;;;19.23;84.41
15444;BME280;7822;48.146;11.576;2023-07-31T04:28:06;95199.47;;;19.23;84.41
15444;BME280;7822;48.146;11.576;2023-07-31T04:30:34;95204.72;;;19.23;84.35
15444;BME280;7822;48.146;11.576;2023-07-31T04:33:02;95205.50;;;19.23;84.44
15444;BME280;7822;48.146;11.576;2023-07-31T04:35:30;95205.50;;;19.23;84.27
15444;BME280;7822;48.146;11.576;2023-07-31T04:37:59;95197.63;;;19.23;84.35
15444;BME280;7822;48.146;11.576;2023-07-31T04:40:26;95193.19;;;19.24;84.27
15444;BME280;7822;48.146;11.576;2023-07-31T04:42:54;95198.44;;;19.24;84.23
15444;BME280;7822;48.146;11.576;2023-07-31T04:45:21;95201.09;;;19.24;84.55
15444;BME280;7822;48.146;11.576;2023-07-31T04:47:49;95200.25;;;19.23;84.51
15444;BME280;7822;48.146;11.576;2023-07-31T04:50:16;95196.84;;;19.23;84.50
15444;BME280;7822;48.146;11.576;2023-07-31T04:52:44;95199.28;;;19.24;84.42
15444;BME280;7822;48.146;11.576;2023-07-31T04:55:13;95189.56;;;19.25;84.26
15444;BME280;7822;48.146;11.576;2023-07-31T04:57:40;95196.84;;;19.23;84.19
15444;BME280;7822;48.146;11.576;2023-07-31T05:00:08;95195.81;;;19.24;84.37
15444;BME280;7822;48.146;11.576;2023-07-31T05:02:36;95193.19;;;19.24;84.44
15444;BME280;7822;48.146;11.576;2023-07-31T05:05:03;95200.25;;;19.23;84.37
15444;BME280;7822;48.146;11.576;2023-07-31T05:07:31;95198.44;;;19.24;84.30
15444;BME280;7822;48.146;11.576;2023-07-31T05:09:59;95199.28;;;19.24;84.52
15444;BME280;7822;48.146;11.576;2023-07-31T05:12:27;95193.19;;;19.24;84.39
15444;BME280;7822;48.146;11.576;2023-07-31T05:14:55;95199.28;;;19.24;84.30
15444;BME280;7822;48.146;11.576;2023-07-31T05:17:22;95196.66;;;19.24;84.38
15444;BME280;7822;48.146;11.576;2023-07-31T05:19:50;95196.66;;;19.24;84.54
15444;BME280;7822;48.146;11.576;2023-07-31T05:22:17;95201.09;;;19.24;84.40
15444;BME280;7822;48.146;11.576;2023-07-31T05:24:45;95198.25;;;19.25;84.40
15444;BME280;7822;48.146;11.576;2023-07-31T05:27:12;95199.28;;;19.24;84.35
15444;BME280;7822;48.146;11.576;2023-07-31T05:29:42;95194.00;;;19.24;84.51
15444;BME280;7822;48.146;11.576;2023-07-31T05:32:10;95192.22;;;19.25;84.31
15444;BME280;7822;48.146;11.576;2023-07-31T05:34:37;95187.75;;;19.25;84.34
15444;BME280;7822;48.146;11.576;2023-07-31T05:37:05;95189.56;;;19.25;84.49
15444;BME280;7822;48.146;11.576;2023-07-31T05:39:33;95191.19;;;19.26;84.42
15444;BME280;7822;48.146;11.576;2023-07-31T05:42:00;95195.81;;;19.24;84.54
15444;BME280;7822;48.146;11.576;2023-07-31T05:44:28;95186.94;;;19.25;84.59
15444;BME280;7822;48.146;11.576;2023-07-31T05:46:56;95194.00;;;19.24;84.45
15444;BME280;7822;48.146;11.576;2023-07-31T05:49:24;95190.38;;;19.25;84.37
15444;BME280;7822;48.146;11.576;2023-07-31T05:51:51;95192.03;;;19.27;84.37
15444;BME280;7822;48.146;11.576;2023-07-31T05:54:19;95194.84;;;19.25;84.51
15444;BME280;7822;48.146;11.576;2023-07-31T05:56:46;95186.94;;;19.25;84.64
15444;BME280;7822;48.146;11.576;2023-07-31T05:59:14;95196.66;;;19.24;84.50
15444;BME280;7822;48.146;11.576;2023-07-31T06:01:41;95185.13;;;19.25;84.68
15444;BME280;7822;48.146;11.576;2023-07-31T06:04:10;95190.38;;;19.25;84.54
15444;BME280;7822;48.146;11.576;2023-07-31T06:06:38;95181.69;;;19.25;84.73
15444;BME280;7822;48.146;11.576;2023-07-31T06:09:06;95191.38;;;19.24;84.80
15444;BME280;7822;48.146;11.576;2023-07-31T06:11:34;95188.75;;;19.24;84.67
15444;BME280;7822;48.146;11.576;2023-07-31T06:14:01;95178.22;;;19.24;84.71
15444;BME280;7822;48.146;11.576;2023-07-31T06:16:29;95196.66;;;19.24;84.51
15444;BME280;7822;48.146;11.576;2023-07-31T06:18:56;95201.09;;;19.24;84.54
15444;BME280;7822;48.146;11.576;2023-07-31T06:21:25;95188.94;;;19.23;84.45
15444;BME280;7822;48.146;11.576;2023-07-31T06:23:53;95196.66;;;19.24;84.61
15444;BME280;7822;48.146;11.576;2023-07-31T06:26:20;95202.88;;;19.23;84.32
15444;BME280;7822;48.146;11.576;2023-07-31T06:28:48;95194.00;;;19.24;84.30
15444;BME280;7822;48.146;11.576;2023-07-31T06:31:15;95201.09;;;19.24;84.53
15444;BME280;7822;48.146;11.576;2023-07-31T06:33:46;95193.19;;;19.24;84.56
15444;BME280;7822;48.146;11.576;2023-07-31T06:36:14;95203.72;;;19.24;84.43
15444;BME280;7822;48.146;11.576;2023-07-31T06:38:43;95199.28;;;19.24;84.35
15444;BME280;7822;48.146;11.576;2023-07-31T06:41:10;95206.34;;;19.24;84.47
15444;BME280;7822;48.146;11.576;2023-07-31T06:43:38;95203.72;;;19.24;84.43
15444;BME280;7822;48.146;11.576;2023-07-31T06:46:05;95196.84;;;19.23;84.25
15444;BME280;7822;48.146;11.576;2023-07-31T06:48:34;95198.44;;;19.24;84.64
15444;BME280;7822;48.146;11.576;2023-07-31T06:51:03;95192.38;;;19.23;84.47
15444;BME280;7822;48.146;11.576;2023-07-31T06:53:30;95194.00;;;19.24;84.34
15444;BME280;7822;48.146;11.576;2023-07-31T06:55:59;95189.72;;;19.23;84.40
15444;BME280;7822;48.146;11.576;2023-07-31T06:58:27;95191.38;;;19.24;84.37
15444;BME280;7822;48.146;11.576;2023-07-31T07:00:54;95177.41;;;19.24;84.28
15444;BME280;7822;48.146;11.576;2023-07-31T07:03:22;95177.41;;;19.24;84.12
15444;BME280;7822;48.146;11.576;2023-07-31T07:05:49;95179.22;;;19.23;84.50
15444;BME280;7822;48.146;11.576;2023-07-31T07:08:17;95187.09;;;19.23;84.33
15444;BME280;7822;48.146;11.576;2023-07-31T07:10:44;95185.28;;;19.24;84.31
15444;BME280;7822;48.146;11.576;2023-07-31T07:13:13;95190.38;;;19.25;84.29
15444;BME280;7822;48.146;11.576;2023-07-31T07:15:40;95189.56;;;19.25;84.48
15444;BME280;7822;48.146;11.576;2023-07-31T07:18:08;95184.66;;;19.22;84.47
15444;BME280;7822;48.146;11.576;2023-07-31T07:20:37;95182.22;;;19.20;84.57
15444;BME280;7822;48.146;11.576;2023-07-31T07:23:04;95186.84;;;19.18;84.35
15444;BME280;7822;48.146;11.576;2023-07-31T07:25:32;95187.00;;;19.17;84.17
15444;BME280;7822;48.146;11.576;2023-07-31T07:27:59;95185.19;;;19.17;84.03
15444;BME280;7822;48.146;11.576;2023-07-31T07:30:28;95186.19;;;19.16;83.87
15444;BME280;7822;48.146;11.576;2023-07-31T07:32:56;95183.72;;;19.15;83.71
15444;BME280;7822;48.146;11.576;2023-07-31T07:35:23;95179.63;;;19.12;83.16
15444;BME280;7822;48.146;11.576;2023-07-31T07:37:51;95171.75;;;19.12;83.06
15444;BME280;7822;48.146;11.576;2023-07-31T07:40:19;95170.94;;;19.12;82.79
15444;BME280;7822;48.146;11.576;2023-07-31T07:42:47;95172.09;;;19.09;82.45
15444;BME280;7822;48.146;11.576;2023-07-31T07:45:14;95168.66;;;19.09;82.37
15444;BME280;7822;48.146;11.576;2023-07-31T07:47:43;95166.03;;;19.09;82.24
15444;BME280;7822;48.146;11.576;2023-07-31T07:50:11;95161.75;;;19.08;81.67
15444;BME280;7822;48.146;11.576;2023-07-31T07:52:38;95150.44;;;19.07;81.63
15444;BME280;7822;48.146;11.576;2023-07-31T07:55:06;95156.47;;;19.08;81.47
15444;BME280;7822;48.146;11.576;2023-07-31T07:57:34;95151.22;;;19.08;81.12
15444;BME280;7822;48.146;11.576;2023-07-31T08:00:01;95136.06;;;19.33;81.30
15444;BME280;7822;48.146;11.576;2023-07-31T08:02:29;95134.59;;;19.30;78.82
15444;BME280;7822;48.146;11.576;2023-07-31T08:04:58;95133.81;;;19.30;78.40
15444;BME280;7822;48.146;11.576;2023-07-31T08:07:25;95134.50;;;19.23;78.26
15444;BME280;7822;48.146;11.576;2023-07-31T08:09:53;95140.94;;;19.21;78.18
15444;BME280;7822;48.146;11.576;2023-07-31T08:12:20;95134.88;;;19.20;78.80
15444;BME280;7822;48.146;11.576;2023-07-31T08:14:48;95139.31;;;19.20;79.47
15444;BME280;7822;48.146;11.576;2023-07-31T08:17:15;95152.66;;;19.18;79.86
15444;BME280;7822;48.146;11.576;2023-07-31T08:19:43;95144.13;;;19.16;79.53
15444;BME280;7822;48.146;11.576;2023-07-31T08:22:13;95144.47;;;19.13;79.49
15444;BME280;7822;48.146;11.576;2023-07-31T08:24:41;95136.91;;;19.10;78.38
15444;BME280;7822;48.146;11.576;2023-07-31T08:27:09;95138.06;;;19.08;77.68
15444;BME280;7822;48.146;11.576;2023-07-31T08:29:37;95150.44;;;19.07;76.82
15444;BME280;7822;48.146;11.576;2023-07-31T08:32:05;95145.97;;;19.08;76.88
15444;BME280;7822;48.146;11.576;2023-07-31T08:34:33;95152.06;;;19.08;76.89
15444;BME280;7822;48.146;11.576;2023-07-31T08:37:00;95144.16;;;19.08;76.14
15444;BME280;7822;48.146;11.576;2023-07-31T08:39:29;95145.81;;;19.09;76.72
15444;BME280;7822;48.146;11.576;2023-07-31T08:41:57;95139.72;;;19.09;76.17
15444;BME280;7822;48.146;11.576;2023-07-31T08:44:25;95138.75;;;19.10;75.87
15444;BME280;7822;48.146;11.576;2023-07-31T08:46:52;95128.22;;;19.10;75.06
15444;BME280;7822;48.146;11.576;2023-07-31T08:49:20;95135.28;;;19.09;74.67
15444;BME280;7822;48.146;11.576;2023-07-31T08:51:49;95139.38;;;19.12;75.15
15444;BME280;7822;48.146;11.576;2023-07-31T08:54:17;95134.91;;;19.12;75.60
15444;BME280;7822;48.146;11.576;2023-07-31T08:56:46;95134.91;;;19.12;75.47
15444;BME280;7822;48.146;11.576;2023-07-31T08:59:14;95132.28;;;19.12;75.41
15444;BME280;7822;48.146;11.576;2023-07-31T09:01:43;95142.03;;;19.12;74.88
15444;BME280;7822;48.146;11.576;2023-07-31T09:04:13;95144.66;;;19.12;74.09
15444;BME280;7822;48.146;11.576;2023-07-31T09:06:41;95141.19;;;19.11;74.16
15444;BME280;7822;48.146;11.576;2023-07-31T09:09:09;95146.44;;;19.11;73.95
15444;BME280;7822;48.146;11.576;2023-07-31T09:11:37;95139.53;;;19.10;73.76
15444;BME280;7822;48.146;11.576;2023-07-31T09:14:08;95143.81;;;19.11;73.13
15444;BME280;7822;48.146;11.576;2023-07-31T09:16:36;95144.00;;;19.10;72.31
15444;BME280;7822;48.146;11.576;2023-07-31T09:19:24;95139.19;;;19.13;72.51
15444;BME280;7822;48.146;11.576;2023-07-31T09:21:51;95134.03;;;19.20;73.65
15444;BME280;7822;48.146;11.576;2023-07-31T09:24:24;95123.53;;;19.20;73.75
15444;BME280;7822;48.146;11.576;2023-07-31T09:26:53;95109.56;;;19.19;72.92
15444;BME280;7822;48.146;11.576;2023-07-31T09:29:22;95114.00;;;19.19;72.21
15444;BME280;7822;48.146;11.576;2023-07-31T09:31:50;95121.09;;;19.18;71.36
15444;BME280;7822;48.146;11.576;2023-07-31T09:34:20;95126.97;;;19.20;72.46
15444;BME280;7822;48.146;11.576;2023-07-31T09:36:48;95118.72;;;19.23;73.73
15444;BME280;7822;48.146;11.576;2023-07-31T09:39:16;95116.91;;;19.24;74.16
15444;BME280;7822;48.146;11.576;2023-07-31T09:41:47;95116.72;;;19.25;74.66
15444;BME280;7822;48.146;11.576;2023-07-31T09:44:14;95118.38;;;19.27;75.09
15444;BME280;7822;48.146;11.576;2023-07-31T09:46:43;95115.09;;;19.24;74.16
15444;BME280;7822;48.146;11.576;2023-07-31T09:49:11;95111.84;;;19.22;73.92
15444;BME280;7822;48.146;11.576;2023-07-31T09:51:40;95097.88;;;19.22;73.64
15444;BME280;7822;48.146;11.576;2023-07-31T09:54:09;95096.69;;;19.24;74.62
15444;BME280;7822;48.146;11.576;2023-07-31T09:56:38;95096.69;;;19.24;74.65
15444;BME280;7822;48.146;11.576;2023-07-31T09:59:08;95092.41;;;19.23;74.43
15444;BME280;7822;48.146;11.576;2023-07-31T10:01:38;95085.16;;;19.25;74.94
15444;BME280;7822;48.146;11.576;2023-07-31T10:04:07;95092.06;;;19.27;75.66
15444;BME280;7822;48.146;11.576;2023-07-31T10:06:35;95089.88;;;19.30;75.70
15444;BME280;7822;48.146;11.576;2023-07-31T10:09:04;95077.38;;;19.32;75.95
15444;BME280;7822;48.146;11.576;2023-07-31T10:11:33;95086.91;;;19.33;75.69
15444;BME280;7822;48.146;11.576;2023-07-31T10:14:03;95070.50;;;19.31;75.30
15444;BME280;7822;48.146;11.576;2023-07-31T10:16:32;95057.97;;;19.33;75.73
15444;BME280;7822;48.146;11.576;2023-07-31T10:18:59;95047.28;;;19.35;76.00
15444;BME280;7822;48.146;11.576;2023-07-31T10:21:28;95050.28;;;19.32;75.07
15444;BME280;7822;48.146;11.576;2023-07-31T10:23:56;95051.06;;;19.32;75.17
15444;BME280;7822;48.146;11.576;2023-07-31T10:26:24;95057.16;;;19.33;75.11
15444;BME280;7822;48.146;11.576;2023-07-31T10:28:52;95049.63;;;19.30;73.92
15444;BME280;7822;48.146;11.576;2023-07-31T10:31:20;95038.91;;;19.31;74.66
15444;BME280;7822;48.146;11.576;2023-07-31T10:33:48;95055.69;;;19.30;74.60
15444;BME280;7822;48.146;11.576;2023-07-31T10:36:17;95055.06;;;19.28;72.60
15444;BME280;7822;48.146;11.576;2023-07-31T10:38:46;95046.53;;;19.26;71.17
15444;BME280;7822;48.146;11.576;2023-07-31T10:41:15;95044.38;;;19.30;72.58
15444;BME280;7822;48.146;11.576;2023-07-31T10:43:43;95044.00;;;19.33;74.24
15444;BME280;7822;48.146;11.576;2023-07-31T10:46:13;95039.56;;;19.33;75.36
15444;BME280;7822;48.146;11.576;2023-07-31T10:48:40;95043.00;;;19.34;75.94
15444;BME280;7822;48.146;11.576;2023-07-31T10:51:09;95046.00;;;19.31;75.77
15444;BME280;7822;48.146;11.576;2023-07-31T10:53:38;95045.94;;;19.39;76.78
15444;BME280;7822;48.146;11.576;2023-07-31T10:56:07;95043.16;;;19.32;73.73
15444;BME280;7822;48.146;11.576;2023-07-31T10:58:35;95040.91;;;19.29;72.27
15444;BME280;7822;48.146;11.576;2023-07-31T11:01:04;95033.03;;;19.29;71.40
15444;BME280;7822;48.146;11.576;2023-07-31T11:03:41;95031.22;;;19.30;72.36
15444;BME280;7822;48.146;11.576;2023-07-31T11:06:10;95027.56;;;19.31;73.82
15444;BME280;7822;48.146;11.576;2023-07-31T11:08:41;95021.50;;;19.30;74.52
15444;BME280;7822;48.146;11.576;2023-07-31T11:11:11;95021.50;;;19.30;75.09
15444;BME280;7822;48.146;11.576;2023-07-31T11:13:39;95026.75;;;19.30;76.13
15444;BME280;7822;48.146;11.576;2023-07-31T11:16:07;95014.81;;;19.28;74.68
15444;BME280;7822;48.146;11.576;2023-07-31T11:18:35;95012.97;;;19.28;74.64
15444;BME280;7822;48.146;11.576;2023-07-31T11:21:03;95014.81;;;19.28;74.84
15444;BME280;7822;48.146;11.576;2023-07-31T11:23:30;95006.09;;;19.27;74.70
15444;BME280;7822;48.146;11.576;2023-07-31T11:25:58;95014.81;;;19.28;75.26
15444;BME280;7822;48.146;11.576;2023-07-31T11:28:31;95009.34;;;19.29;76.38
15444;BME280;7822;48.146;11.576;2023-07-31T11:30:59;94998.00;;;19.29;76.39
15444;BME280;7822;48.146;11.576;2023-07-31T11:33:27;94995.56;;;19.27;75.75
15444;BME280;7822;48.146;11.576;2023-07-31T11:35:54;94994.56;;;19.28;75.85
15444;BME280;7822;48.146;11.576;2023-07-31T11:38:22;94978.97;;;19.27;75.70
15444;BME280;7822;48.146;11.576;2023-07-31T11:40:51;94986.66;;;19.28;75.65
15444;BME280;7822;48.146;11.576;2023-07-31T11:43:19;94978.78;;;19.28;75.77
15444;BME280;7822;48.146;11.576;2023-07-31T11:45:48;94978.78;;;19.28;76.27
15444;BME280;7822;48.146;11.576;2023-07-31T11:48:20;94963.81;;;19.29;76.39
15444;BME280;7822;48.146;11.576;2023-07-31T11:50:48;94958.75;;;19.27;76.09
15444;BME280;7822;48.146;11.576;2023-07-31T11:53:17;94962.19;;;19.28;76.11
15444;BME280;7822;48.146;11.576;2023-07-31T11:55:46;94961.38;;;19.27;75.94
15444;BME280;7822;48.146;11.576;2023-07-31T11:58:14;94953.50;;;19.27;76.08
15444;BME280;7822;48.146;11.576;2023-07-31T12:00:42;94941.31;;;19.26;75.49
15444;BME280;7822;48.146;11.576;2023-07-31T12:03:11;94937.72;;;19.27;75.24
15444;BME280;7822;48.146;11.576;2023-07-31T12:05:39;94950.84;;;19.27;74.46
15444;BME280;7822;48.146;11.576;2023-07-31T12:08:09;94945.41;;;19.29;74.30
15444;BME280;7822;48.146;11.576;2023-07-31T12:10:38;94933.06;;;19.29;73.99
15444;BME280;7822;48.146;11.576;2023-07-31T12:13:08;94930.44;;;19.29;73.53
15444;BME280;7822;48.146;11.576;2023-07-31T12:15:40;94924.16;;;19.30;72.91
15444;BME280;7822;48.146;11.576;2023-07-31T12:18:09;94920.75;;;19.30;73.08
15444;BME280;7822;48.146;11.576;2023-07-31T12:20:42;94929.44;;;19.30;73.09
15444;BME280;7822;48.146;11.576;2023-07-31T12:23:14;94922.38;;;19.31;73.34
15444;BME280;7822;48.146;11.576;2023-07-31T12:25:41;94919.72;;;19.31;73.00
15444;BME280;7822;48.146;11.576;2023-07-31T12:28:09;94895.22;;;19.30;71.95
15444;BME280;7822;48.146;11.576;2023-07-31T12:30:39;94896.88;;;19.31;71.34
15444;BME280;7822;48.146;11.576;2023-07-31T12:33:10;94899.31;;;19.33;71.62
15444;BME280;7822;48.146;11.576;2023-07-31T12:35:46;94890.59;;;19.32;71.29
15444;BME280;7822;48.146;11.576;2023-07-31T12:38:14;94894.88;;;19.33;71.39
15444;BME280;7822;48.146;11.576;2023-07-31T12:40:41;94892.25;;;19.33;71.29
15444;BME280;7822;48.146;11.576;2023-07-31T12:43:09;94891.44;;;19.33;71.47
15444;BME280;7822;48.146;11.576;2023-07-31T12:45:36;94884.34;;;19.33;71.45
15444;BME280;7822;48.146;11.576;2023-07-31T12:48:04;94877.44;;;19.32;71.09
15444;BME280;7822;48.146;11.576;2023-07-31T12:50:32;94876.47;;;19.33;71.19
15444;BME280;7822;48.146;11.576;2023-07-31T12:53:00;94883.53;;;19.33;71.53
15444;BME280;7822;48.146;11.576;2023-07-31T12:55:29;94879.91;;;19.34;71.78
15444;BME280;7822;48.146;11.576;2023-07-31T12:57:57;94885.19;;;19.34;71.79
15444;BME280;7822;48.146;11.576;2023-07-31T13:00:24;94878.28;;;19.33;71.89
15444;BME280;7822;48.146;11.576;2023-07-31T13:02:52;94878.28;;;19.33;71.79
15444;BME280;7822;48.146;11.576;2023-07-31T13:05:21;94884.34;;;19.33;70.99